Time;durP1;ratioP1;P1;durP2;ratioP2;P2;SDS_P1;SDS_P2;PMS_P1;PMS_P2;Temp;Humidity;BMP_temperature;BMP_pressure;BME280_temperature;BME280_humidity;BME280_pressure;Samples;Min_cycle;Max_cycle;Signal;HPM_P1;HPM_P2
2023/09/21 00:00:08;;;;;;;;;;;15.50;99.90;;;;;;5084152;28;20153;-75
2023/09/21 00:02:34;;;;;;;;;;;15.60;99.90;;;;;;5084403;28;20188;-75
2023/09/21 00:05:03;;;;;;;;;;;15.50;99.90;;;;;;5083930;28;19936;-75
2023/09/21 00:07:31;;;;;;;;;;;15.50;99.90;;;;;;5083829;28;19953;-74
2023/09/21 00:09:58;;;;;;;;;;;15.50;99.90;;;;;;5084009;28;19920;-75
2023/09/21 00:12:25;;;;;;;;;;;15.40;99.90;;;;;;5083796;28;19983;-75
2023/09/21 00:14:52;;;;;;;;;;;15.40;99.90;;;;;;5080644;28;19927;-75
2023/09/21 00:17:18;;;;;;;;;;;15.40;99.90;;;;;;5084084;28;20166;-74
2023/09/21 00:19:46;;;;;;;;;;;15.40;99.90;;;;;;5084199;28;19955;-75
2023/09/21 00:22:13;;;;;;;;;;;15.30;99.90;;;;;;5084063;28;19932;-75
2023/09/21 00:24:40;;;;;;;;;;;15.30;99.90;;;;;;5087327;28;19920;-74
2023/09/21 00:27:08;;;;;;;;;;;15.30;99.90;;;;;;5085861;28;19920;-75
2023/09/21 00:29:35;;;;;;;;;;;15.20;99.90;;;;;;5083986;28;19974;-74
2023/09/21 00:32:02;;;;;;;;;;;15.20;99.90;;;;;;5093760;28;20183;-75
2023/09/21 00:34:29;;;;;;;;;;;15.10;99.90;;;;;;5090457;28;19983;-75
2023/09/21 00:36:57;;;;;;;;;;;15.10;99.90;;;;;;5083525;28;19942;-75
2023/09/21 00:39:23;;;;;;;;;;;15.10;99.90;;;;;;5083504;28;19921;-75
2023/09/21 00:41:50;;;;;;;;;;;15.10;99.90;;;;;;5083242;28;19987;-75
2023/09/21 00:44:20;;;;;;;;;;;15.00;99.90;;;;;;5083554;28;19921;-75
2023/09/21 00:46:48;;;;;;;;;;;15.00;99.90;;;;;;5083852;28;19985;-75
2023/09/21 00:49:17;;;;;;;;;;;15.00;99.90;;;;;;5083862;28;20299;-75
2023/09/21 00:51:45;;;;;;;;;;;15.00;99.90;;;;;;5082401;28;20155;-75
2023/09/21 00:54:12;;;;;;;;;;;14.90;99.90;;;;;;5083481;28;19982;-75
2023/09/21 00:56:40;;;;;;;;;;;14.90;99.90;;;;;;5083816;28;19974;-75
2023/09/21 00:59:06;;;;;;;;;;;14.90;99.90;;;;;;5083734;28;19927;-75
2023/09/21 01:01:37;;;;;;;;;;;14.90;99.90;;;;;;5083645;28;19928;-75
2023/09/21 01:04:06;;;;;;;;;;;14.90;99.90;;;;;;5083546;28;19924;-75
2023/09/21 01:06:32;;;;;;;;;;;14.80;99.90;;;;;;5083403;28;19921;-75
2023/09/21 01:08:59;;;;;;;;;;;14.80;99.90;;;;;;5083662;28;20004;-75
2023/09/21 01:11:26;;;;;;;;;;;14.80;99.90;;;;;;5083311;28;20122;-75
2023/09/21 01:13:53;;;;;;;;;;;14.80;99.90;;;;;;5083276;28;20230;-75
2023/09/21 01:16:23;;;;;;;;;;;14.70;99.90;;;;;;5083299;28;19978;-74
2023/09/21 01:18:52;;;;;;;;;;;14.70;99.90;;;;;;5083670;28;19920;-75
2023/09/21 01:21:22;;;;;;;;;;;14.60;99.90;;;;;;5079891;28;20207;-75
2023/09/21 01:23:52;;;;;;;;;;;14.60;99.90;;;;;;5083477;28;19948;-75
2023/09/21 01:26:19;;;;;;;;;;;14.60;99.90;;;;;;5080025;28;19988;-75
2023/09/21 01:28:47;;;;;;;;;;;14.60;99.90;;;;;;5083510;28;19943;-75
2023/09/21 01:31:14;;;;;;;;;;;14.50;99.90;;;;;;5082506;28;19920;-75
2023/09/21 01:33:41;;;;;;;;;;;14.50;99.90;;;;;;5083395;28;19921;-75
2023/09/21 01:36:09;;;;;;;;;;;14.50;99.90;;;;;;5085803;28;19942;-75
2023/09/21 01:38:35;;;;;;;;;;;14.50;99.90;;;;;;5082159;28;20232;-75
2023/09/21 01:41:04;;;;;;;;;;;14.40;99.90;;;;;;5083221;28;19980;-75
2023/09/21 01:43:30;;;;;;;;;;;14.40;99.90;;;;;;5083310;28;19920;-75
2023/09/21 01:45:57;;;;;;;;;;;14.40;99.90;;;;;;5083108;28;19955;-75
2023/09/21 01:48:24;;;;;;;;;;;14.40;99.90;;;;;;5083115;28;19952;-75
2023/09/21 01:50:52;;;;;;;;;;;14.40;99.90;;;;;;5083260;28;19920;-75
2023/09/21 01:53:19;;;;;;;;;;;14.30;99.90;;;;;;5086676;28;20181;-75
2023/09/21 01:55:47;;;;;;;;;;;14.30;99.90;;;;;;5086754;28;19952;-75
2023/09/21 01:58:16;;;;;;;;;;;14.30;99.90;;;;;;5086779;28;19928;-75
2023/09/21 02:00:46;;;;;;;;;;;14.30;99.90;;;;;;5086478;28;19967;-75
2023/09/21 02:03:13;;;;;;;;;;;14.30;99.90;;;;;;5086728;28;19928;-75
2023/09/21 02:05:40;;;;;;;;;;;14.30;99.90;;;;;;5086440;28;19959;-75
2023/09/21 02:08:07;;;;;;;;;;;14.20;99.90;;;;;;5084091;28;19979;-75
2023/09/21 02:10:34;;;;;;;;;;;14.20;99.90;;;;;;5085901;28;19979;-75
2023/09/21 02:13:01;;;;;;;;;;;14.20;99.90;;;;;;5091307;28;19983;-75
2023/09/21 02:15:29;;;;;;;;;;;14.20;99.90;;;;;;5096427;28;19955;-75
2023/09/21 02:17:56;;;;;;;;;;;14.10;99.90;;;;;;5093489;28;19920;-75
2023/09/21 02:20:24;;;;;;;;;;;14.10;99.90;;;;;;5086189;28;19920;-75
2023/09/21 02:22:51;;;;;;;;;;;14.10;99.90;;;;;;5086439;28;20118;-75
2023/09/21 02:25:18;;;;;;;;;;;14.00;99.90;;;;;;5086259;28;19927;-75
2023/09/21 02:27:47;;;;;;;;;;;14.00;99.90;;;;;;5086361;28;19980;-75
2023/09/21 02:30:16;;;;;;;;;;;14.00;99.90;;;;;;5091703;28;20049;-75
2023/09/21 02:32:46;;;;;;;;;;;14.00;99.90;;;;;;5082692;28;19965;-75
2023/09/21 02:35:15;;;;;;;;;;;13.90;99.90;;;;;;5086753;28;19928;-75
2023/09/21 02:37:45;;;;;;;;;;;13.90;99.90;;;;;;5087188;28;19943;-75
2023/09/21 02:40:15;;;;;;;;;;;13.90;99.90;;;;;;5086921;28;19943;-75
2023/09/21 02:42:42;;;;;;;;;;;13.90;99.90;;;;;;5091741;28;20232;-75
2023/09/21 02:45:10;;;;;;;;;;;13.90;99.90;;;;;;5089851;28;19920;-75
2023/09/21 02:47:37;;;;;;;;;;;13.90;99.90;;;;;;5085912;28;20148;-75
2023/09/21 02:50:14;;;;;;;;;;;13.90;99.90;;;;;;5085680;28;19966;-75
2023/09/21 02:52:45;;;;;;;;;;;13.90;99.90;;;;;;5086047;28;19920;-75
2023/09/21 02:55:12;;;;;;;;;;;13.80;99.90;;;;;;5085582;28;20315;-75
2023/09/21 02:57:39;;;;;;;;;;;13.80;99.90;;;;;;5085832;28;19975;-75
2023/09/21 03:00:13;;;;;;;;;;;13.80;99.90;;;;;;5085627;28;20153;-76
2023/09/21 03:02:40;;;;;;;;;;;13.80;99.90;;;;;;5085418;28;19920;-75
2023/09/21 03:05:11;;;;;;;;;;;13.70;99.90;;;;;;5086775;28;20110;-76
2023/09/21 03:07:41;;;;;;;;;;;13.70;99.90;;;;;;5086251;28;19927;-76
2023/09/21 03:10:09;;;;;;;;;;;13.70;99.90;;;;;;5085558;28;19962;-76
2023/09/21 03:12:37;;;;;;;;;;;13.60;99.90;;;;;;5085137;28;19962;-76
2023/09/21 03:15:06;;;;;;;;;;;13.60;99.90;;;;;;5085193;28;19924;-76
2023/09/21 03:17:34;;;;;;;;;;;13.60;99.90;;;;;;5085257;28;19920;-76
2023/09/21 03:20:25;;;;;;;;;;;13.50;99.90;;;;;;5085262;28;19927;-76
2023/09/21 03:22:48;;;;;;;;;;;13.50;99.90;;;;;;5083522;28;19952;-76
2023/09/21 03:25:16;;;;;;;;;;;13.40;99.90;;;;;;5084782;28;19951;-76
2023/09/21 03:27:43;;;;;;;;;;;13.40;99.90;;;;;;5080383;28;19987;-75
2023/09/21 03:30:12;;;;;;;;;;;13.40;99.90;;;;;;5088217;28;19921;-75
2023/09/21 03:32:40;;;;;;;;;;;13.40;99.90;;;;;;5085046;28;20225;-76
2023/09/21 03:35:11;;;;;;;;;;;13.40;99.90;;;;;;5084870;28;20026;-76
2023/09/21 03:37:38;;;;;;;;;;;13.40;99.90;;;;;;5084761;28;20218;-76
2023/09/21 03:40:07;;;;;;;;;;;13.40;99.90;;;;;;5083343;28;19920;-75
2023/09/21 03:42:34;;;;;;;;;;;13.40;99.90;;;;;;5083693;28;19962;-75
2023/09/21 03:45:00;;;;;;;;;;;13.40;99.90;;;;;;5085509;28;19920;-76
2023/09/21 03:47:27;;;;;;;;;;;13.30;99.90;;;;;;5093619;28;20178;-75
2023/09/21 03:49:54;;;;;;;;;;;13.30;99.90;;;;;;5084787;28;19983;-75
2023/09/21 03:52:22;;;;;;;;;;;13.30;99.90;;;;;;5084591;28;19920;-76
2023/09/21 03:54:49;;;;;;;;;;;13.30;99.90;;;;;;5088846;28;19928;-75
2023/09/21 03:57:17;;;;;;;;;;;13.30;99.90;;;;;;5084752;28;19927;-75
2023/09/21 03:59:46;;;;;;;;;;;13.30;99.90;;;;;;5084158;28;20270;-76
2023/09/21 04:02:13;;;;;;;;;;;13.30;99.90;;;;;;5084468;28;19936;-75
2023/09/21 04:04:40;;;;;;;;;;;13.30;99.90;;;;;;5084127;28;19929;-76
2023/09/21 04:07:07;;;;;;;;;;;13.20;99.90;;;;;;5084059;28;20259;-75
2023/09/21 04:09:34;;;;;;;;;;;13.20;99.90;;;;;;5083972;28;20261;-75
2023/09/21 04:12:01;;;;;;;;;;;13.20;99.90;;;;;;5084205;28;19920;-75
2023/09/21 04:14:29;;;;;;;;;;;13.10;99.90;;;;;;5083749;28;19956;-76
2023/09/21 04:16:56;;;;;;;;;;;13.20;99.90;;;;;;5084049;28;20226;-75
2023/09/21 04:19:23;;;;;;;;;;;13.10;99.90;;;;;;5083905;28;20207;-75
2023/09/21 04:21:50;;;;;;;;;;;13.10;99.90;;;;;;5083873;28;19920;-75
2023/09/21 04:24:17;;;;;;;;;;;13.10;99.90;;;;;;5084030;28;19926;-75
2023/09/21 04:26:44;;;;;;;;;;;13.10;99.90;;;;;;5079591;28;19927;-75
2023/09/21 04:29:09;;;;;;;;;;;13.10;99.90;;;;;;5084042;28;20041;-75
2023/09/21 04:31:38;;;;;;;;;;;13.10;99.90;;;;;;5083801;28;19917;-75
2023/09/21 04:34:05;;;;;;;;;;;13.20;99.90;;;;;;5083809;28;20232;-75
2023/09/21 04:36:31;;;;;;;;;;;13.20;99.90;;;;;;5083799;28;19927;-75
2023/09/21 04:38:59;;;;;;;;;;;13.20;99.90;;;;;;5083685;28;19920;-75
2023/09/21 04:41:27;;;;;;;;;;;13.20;99.90;;;;;;5082752;28;19927;-75
2023/09/21 04:43:54;;;;;;;;;;;13.20;99.90;;;;;;5082453;28;20210;-75
2023/09/21 04:46:21;;;;;;;;;;;13.20;99.90;;;;;;5082938;28;20114;-75
2023/09/21 04:48:49;;;;;;;;;;;13.20;99.90;;;;;;5083870;28;19956;-75
2023/09/21 04:51:16;;;;;;;;;;;13.20;99.90;;;;;;5083742;28;19951;-76
2023/09/21 04:53:43;;;;;;;;;;;13.30;99.90;;;;;;5078880;28;19927;-76
2023/09/21 04:56:09;;;;;;;;;;;13.20;99.90;;;;;;5083202;28;19928;-76
2023/09/21 04:58:36;;;;;;;;;;;13.30;99.90;;;;;;5083730;28;20183;-76
2023/09/21 05:01:09;;;;;;;;;;;13.30;99.90;;;;;;5083255;28;19930;-76
2023/09/21 05:03:36;;;;;;;;;;;13.30;99.90;;;;;;5083545;28;19921;-73
2023/09/21 05:06:04;;;;;;;;;;;13.30;99.90;;;;;;5082859;28;19983;-76
2023/09/21 05:08:35;;;;;;;;;;;13.30;99.90;;;;;;5083007;28;19924;-76
2023/09/21 05:11:01;;;;;;;;;;;13.30;99.90;;;;;;5091955;28;19921;-76
2023/09/21 05:13:28;;;;;;;;;;;13.30;99.90;;;;;;5083550;28;19927;-76
2023/09/21 05:15:55;;;;;;;;;;;13.30;99.90;;;;;;5082787;28;20103;-77
2023/09/21 05:18:22;;;;;;;;;;;13.30;99.90;;;;;;5088322;28;19988;-75
2023/09/21 05:20:49;;;;;;;;;;;13.30;99.90;;;;;;5083500;28;20305;-75
2023/09/21 05:23:17;;;;;;;;;;;13.30;99.90;;;;;;5083351;28;19983;-75
2023/09/21 05:25:44;;;;;;;;;;;13.30;99.90;;;;;;5078124;28;19963;-75
2023/09/21 05:28:11;;;;;;;;;;;13.30;99.90;;;;;;5092308;28;20206;-75
2023/09/21 05:30:38;;;;;;;;;;;13.30;99.90;;;;;;5094849;28;19932;-75
2023/09/21 05:33:07;;;;;;;;;;;13.40;99.90;;;;;;5090475;28;20229;-73
2023/09/21 05:35:34;;;;;;;;;;;13.30;99.90;;;;;;5091626;28;20374;-73
2023/09/21 05:38:00;;;;;;;;;;;13.40;99.90;;;;;;5086779;28;19984;-73
2023/09/21 05:40:29;;;;;;;;;;;13.40;99.90;;;;;;5086988;28;19921;-73
2023/09/21 05:42:55;;;;;;;;;;;13.40;99.90;;;;;;5086993;28;19988;-73
2023/09/21 05:45:22;;;;;;;;;;;13.30;99.90;;;;;;5087513;28;19927;-72
2023/09/21 05:47:49;;;;;;;;;;;13.40;99.90;;;;;;5100453;28;19927;-73
2023/09/21 05:50:15;;;;;;;;;;;13.50;99.90;;;;;;5086120;28;20262;-72
2023/09/21 05:52:42;;;;;;;;;;;13.50;99.90;;;;;;5086581;28;20405;-73
2023/09/21 05:55:11;;;;;;;;;;;13.50;99.90;;;;;;5086429;28;20002;-72
2023/09/21 05:57:40;;;;;;;;;;;13.60;99.90;;;;;;5086580;28;19970;-73
2023/09/21 06:00:08;;;;;;;;;;;13.70;99.90;;;;;;5086294;28;19936;-73
2023/09/21 06:02:35;;;;;;;;;;;13.70;99.90;;;;;;5086433;28;19964;-73
2023/09/21 06:05:01;;;;;;;;;;;13.70;99.90;;;;;;5086288;28;19920;-73
2023/09/21 06:07:28;;;;;;;;;;;13.80;99.90;;;;;;5086603;28;19920;-73
2023/09/21 06:09:55;;;;;;;;;;;13.90;99.90;;;;;;5086454;28;19920;-75
2023/09/21 06:12:25;;;;;;;;;;;13.90;99.90;;;;;;5086218;28;19987;-72
2023/09/21 06:14:56;;;;;;;;;;;14.00;99.90;;;;;;5086124;28;19920;-73
2023/09/21 06:17:22;;;;;;;;;;;14.10;99.90;;;;;;5083802;28;19920;-73
2023/09/21 06:19:52;;;;;;;;;;;14.10;99.90;;;;;;5086124;28;19959;-73
2023/09/21 06:22:18;;;;;;;;;;;14.20;99.90;;;;;;5077671;28;19927;-73
2023/09/21 06:24:45;;;;;;;;;;;14.30;99.90;;;;;;5086089;28;20114;-73
2023/09/21 06:27:12;;;;;;;;;;;14.30;99.90;;;;;;5086414;28;19979;-73
2023/09/21 06:29:38;;;;;;;;;;;14.40;99.90;;;;;;5086216;28;19920;-73
2023/09/21 06:32:08;;;;;;;;;;;14.40;99.90;;;;;;5086191;28;19963;-73
2023/09/21 06:34:34;;;;;;;;;;;14.50;99.90;;;;;;5086458;28;19926;-73
2023/09/21 06:37:01;;;;;;;;;;;14.50;99.90;;;;;;5086060;28;19952;-72
2023/09/21 06:39:28;;;;;;;;;;;14.50;99.90;;;;;;5084893;28;19928;-72
2023/09/21 06:41:54;;;;;;;;;;;14.60;99.90;;;;;;5086003;28;20264;-73
2023/09/21 06:44:21;;;;;;;;;;;14.60;99.90;;;;;;5085840;28;19927;-73
2023/09/21 06:46:50;;;;;;;;;;;14.60;99.90;;;;;;5085920;28;19920;-73
2023/09/21 06:49:18;;;;;;;;;;;14.70;99.90;;;;;;5085573;28;19921;-72
2023/09/21 06:51:46;;;;;;;;;;;14.70;99.90;;;;;;5085785;28;19951;-72
2023/09/21 06:54:13;;;;;;;;;;;14.80;99.90;;;;;;5085699;28;20126;-72
2023/09/21 06:56:40;;;;;;;;;;;14.90;99.90;;;;;;5085516;28;19920;-72
2023/09/21 06:59:06;;;;;;;;;;;14.90;99.90;;;;;;5085374;28;20269;-72
2023/09/21 07:01:33;;;;;;;;;;;15.00;99.90;;;;;;5085618;28;19920;-72
2023/09/21 07:03:59;;;;;;;;;;;15.10;99.90;;;;;;5085225;28;19920;-72
2023/09/21 07:06:28;;;;;;;;;;;15.20;99.90;;;;;;5085268;28;19988;-72
2023/09/21 07:08:54;;;;;;;;;;;15.30;99.90;;;;;;5085543;28;19921;-72
2023/09/21 07:11:21;;;;;;;;;;;15.40;99.90;;;;;;5090316;28;20118;-72
2023/09/21 07:13:48;;;;;;;;;;;15.40;99.90;;;;;;5085395;28;19920;-73
2023/09/21 07:16:14;;;;;;;;;;;15.50;99.90;;;;;;5084743;28;19927;-72
2023/09/21 07:18:42;;;;;;;;;;;15.60;99.90;;;;;;5088287;28;19920;-73
2023/09/21 07:21:08;;;;;;;;;;;15.70;99.90;;;;;;5085312;28;19958;-72
2023/09/21 07:23:36;;;;;;;;;;;15.80;99.90;;;;;;5085009;28;19920;-72
2023/09/21 07:26:03;;;;;;;;;;;15.80;99.90;;;;;;5084948;28;19963;-72
2023/09/21 07:28:30;;;;;;;;;;;15.90;99.90;;;;;;5084701;28;20210;-71
2023/09/21 07:30:56;;;;;;;;;;;16.10;99.90;;;;;;5087980;28;19920;-72
2023/09/21 07:33:23;;;;;;;;;;;16.20;99.90;;;;;;5085146;28;19927;-71
2023/09/21 07:35:50;;;;;;;;;;;16.30;99.90;;;;;;5084590;28;19920;-72
2023/09/21 07:38:18;;;;;;;;;;;16.40;99.90;;;;;;5084866;28;19920;-72
2023/09/21 07:40:46;;;;;;;;;;;16.50;99.90;;;;;;5080264;28;19920;-72
2023/09/21 07:43:13;;;;;;;;;;;16.60;99.90;;;;;;5084677;28;19970;-72
2023/09/21 07:45:40;;;;;;;;;;;16.70;99.90;;;;;;5084594;28;19924;-72
2023/09/21 07:48:06;;;;;;;;;;;16.90;99.90;;;;;;5084472;28;19956;-71
2023/09/21 07:50:34;;;;;;;;;;;17.10;99.90;;;;;;5084231;28;19952;-72
2023/09/21 07:53:03;;;;;;;;;;;17.10;99.90;;;;;;5084207;28;20432;-72
2023/09/21 07:55:30;;;;;;;;;;;17.20;99.90;;;;;;5084244;28;20180;-72
2023/09/21 07:57:58;;;;;;;;;;;17.30;99.90;;;;;;5084456;28;19956;-72
2023/09/21 08:00:25;;;;;;;;;;;17.40;99.90;;;;;;5084071;28;19963;-72
2023/09/21 08:02:53;;;;;;;;;;;17.50;99.90;;;;;;5084039;28;19980;-72
2023/09/21 08:05:20;;;;;;;;;;;17.70;99.90;;;;;;5084137;28;19920;-72
2023/09/21 08:07:49;;;;;;;;;;;17.70;99.90;;;;;;5083788;28;19927;-72
2023/09/21 08:10:17;;;;;;;;;;;17.80;99.90;;;;;;5084065;28;20257;-73
2023/09/21 08:12:44;;;;;;;;;;;17.90;99.90;;;;;;5079017;28;19920;-72
2023/09/21 08:15:12;;;;;;;;;;;17.90;99.90;;;;;;5084084;28;19963;-72
2023/09/21 08:17:39;;;;;;;;;;;18.10;99.90;;;;;;5084075;28;19920;-72
2023/09/21 08:20:09;;;;;;;;;;;18.10;99.90;;;;;;5084052;28;19963;-72
2023/09/21 08:22:36;;;;;;;;;;;18.30;99.90;;;;;;5083848;28;19920;-73
2023/09/21 08:25:04;;;;;;;;;;;18.30;99.90;;;;;;5083611;28;19987;-73
2023/09/21 08:27:30;;;;;;;;;;;18.50;99.90;;;;;;5089248;28;19934;-73
2023/09/21 08:29:57;;;;;;;;;;;18.60;99.90;;;;;;5083903;28;19952;-73
2023/09/21 08:32:25;;;;;;;;;;;18.70;99.90;;;;;;5083840;28;20144;-73
2023/09/21 08:34:52;;;;;;;;;;;18.80;99.90;;;;;;5083765;28;19924;-72
2023/09/21 08:37:19;;;;;;;;;;;18.90;99.90;;;;;;5080646;28;19987;-73
2023/09/21 08:39:45;;;;;;;;;;;18.90;99.90;;;;;;5083928;28;19920;-72
2023/09/21 08:42:12;;;;;;;;;;;19.00;99.90;;;;;;5083951;28;19920;-73
2023/09/21 08:44:40;;;;;;;;;;;19.00;99.90;;;;;;5083197;28;19920;-72
2023/09/21 08:47:11;;;;;;;;;;;19.10;99.90;;;;;;5088673;28;19962;-72
2023/09/21 08:49:40;;;;;;;;;;;19.20;99.90;;;;;;5086345;28;20244;-72
2023/09/21 08:52:09;;;;;;;;;;;19.30;99.90;;;;;;5088434;28;20219;-72
2023/09/21 08:54:39;;;;;;;;;;;19.40;99.90;;;;;;5083519;28;19956;-71
2023/09/21 08:57:07;;;;;;;;;;;19.50;99.90;;;;;;5083659;28;19921;-72
2023/09/21 08:59:35;;;;;;;;;;;19.60;99.90;;;;;;5083204;28;19920;-73
2023/09/21 09:02:02;;;;;;;;;;;19.60;99.90;;;;;;5087837;28;19955;-72
2023/09/21 09:04:29;;;;;;;;;;;19.80;99.90;;;;;;5083191;28;19925;-72
2023/09/21 09:06:57;;;;;;;;;;;19.90;99.90;;;;;;5083185;28;19935;-73
2023/09/21 09:09:24;;;;;;;;;;;20.00;99.90;;;;;;5083480;28;19987;-72
2023/09/21 09:11:51;;;;;;;;;;;20.10;99.90;;;;;;5083176;28;19996;-72
2023/09/21 09:14:19;;;;;;;;;;;20.20;99.90;;;;;;5082909;28;20327;-72
2023/09/21 09:16:47;;;;;;;;;;;20.30;99.90;;;;;;5083109;28;19962;-72
2023/09/21 09:19:14;;;;;;;;;;;20.40;99.90;;;;;;5083078;28;19928;-72
2023/09/21 09:21:41;;;;;;;;;;;20.50;99.90;;;;;;5083255;28;19929;-72
2023/09/21 09:24:11;;;;;;;;;;;20.60;99.90;;;;;;5086482;28;19921;-72
2023/09/21 09:26:38;;;;;;;;;;;20.70;99.90;;;;;;5083072;28;19932;-71
2023/09/21 09:29:05;;;;;;;;;;;20.80;99.90;;;;;;5088054;28;19924;-71
2023/09/21 09:31:32;;;;;;;;;;;20.90;99.90;;;;;;5083152;28;19926;-72
2023/09/21 09:34:00;;;;;;;;;;;21.00;99.90;;;;;;5083238;28;19920;-71
2023/09/21 09:36:27;;;;;;;;;;;21.00;99.90;;;;;;5089737;28;19952;-71
2023/09/21 09:38:55;;;;;;;;;;;21.20;99.90;;;;;;5104352;28;19979;-71
2023/09/21 09:41:23;;;;;;;;;;;21.30;99.90;;;;;;5100667;28;19938;-73
2023/09/21 09:43:51;;;;;;;;;;;21.40;99.90;;;;;;5100555;28;19958;-74
2023/09/21 09:46:22;;;;;;;;;;;21.60;99.90;;;;;;5082423;28;20301;-72
2023/09/21 09:48:51;;;;;;;;;;;21.60;99.90;;;;;;5082914;28;20171;-72
2023/09/21 09:51:21;;;;;;;;;;;21.70;99.90;;;;;;5082763;28;19992;-72
2023/09/21 09:53:48;;;;;;;;;;;21.80;99.90;;;;;;5083115;28;19992;-74
2023/09/21 09:56:17;;;;;;;;;;;21.90;99.90;;;;;;5082792;28;20167;-72
2023/09/21 09:58:47;;;;;;;;;;;22.00;99.90;;;;;;5078156;28;19951;-72
2023/09/21 10:01:15;;;;;;;;;;;22.10;99.90;;;;;;5082369;28;19933;-72
2023/09/21 10:03:43;;;;;;;;;;;22.20;99.90;;;;;;5082503;28;20171;-72
2023/09/21 10:06:10;;;;;;;;;;;22.40;99.90;;;;;;5085882;28;19959;-72
2023/09/21 10:08:38;;;;;;;;;;;22.50;99.90;;;;;;5082785;28;19952;-72
2023/09/21 10:11:06;;;;;;;;;;;22.60;99.90;;;;;;5082742;28;19921;-72
2023/09/21 10:13:35;;;;;;;;;;;22.70;99.90;;;;;;5084724;28;20223;-73
2023/09/21 10:16:05;;;;;;;;;;;22.80;99.90;;;;;;5087048;28;19983;-72
2023/09/21 10:18:35;;;;;;;;;;;22.90;99.90;;;;;;5087765;28;19982;-72
2023/09/21 10:21:16;;;;;;;;;;;22.90;99.90;;;;;;5086205;28;19920;-73
2023/09/21 10:23:59;;;;;;;;;;;23.00;99.90;;;;;;5081060;28;20222;-73
2023/09/21 10:26:26;;;;;;;;;;;23.10;99.90;;;;;;5083772;28;19991;-73
2023/09/21 10:28:53;;;;;;;;;;;23.20;99.90;;;;;;5085822;28;19943;-73
2023/09/21 10:31:23;;;;;;;;;;;23.30;99.90;;;;;;5085797;28;19988;-72
2023/09/21 10:34:07;;;;;;;;;;;23.40;99.90;;;;;;5085261;28;19927;-72
2023/09/21 10:36:36;;;;;;;;;;;23.60;99.90;;;;;;5084243;28;19927;-72
2023/09/21 10:39:24;;;;;;;;;;;23.60;99.90;;;;;;5090603;28;19975;-72
2023/09/21 10:41:52;;;;;;;;;;;23.80;99.90;;;;;;5081743;28;19920;-73
2023/09/21 10:44:37;;;;;;;;;;;23.90;99.90;;;;;;5082390;28;19920;-72
2023/09/21 10:47:06;;;;;;;;;;;24.00;99.90;;;;;;5085347;28;20253;-72
2023/09/21 10:49:34;;;;;;;;;;;24.10;99.90;;;;;;5085861;28;19983;-72
2023/09/21 10:52:02;;;;;;;;;;;24.20;99.90;;;;;;5085586;28;20182;-72
2023/09/21 10:54:28;;;;;;;;;;;24.30;99.90;;;;;;5085379;28;19920;-72
2023/09/21 10:56:55;;;;;;;;;;;24.50;99.90;;;;;;5085607;28;19921;-72
2023/09/21 10:59:22;;;;;;;;;;;24.50;99.90;;;;;;5085269;28;19955;-72
2023/09/21 11:01:49;;;;;;;;;;;24.70;99.90;;;;;;5085593;28;19928;-72
2023/09/21 11:04:17;;;;;;;;;;;24.80;99.90;;;;;;5090080;28;19920;-73
2023/09/21 11:06:46;;;;;;;;;;;24.90;99.90;;;;;;5085358;28;19924;-74
2023/09/21 11:09:12;;;;;;;;;;;25.00;99.90;;;;;;5085164;28;19968;-73
2023/09/21 11:11:39;;;;;;;;;;;25.10;99.90;;;;;;5090124;28;19927;-73
2023/09/21 11:14:05;;;;;;;;;;;25.20;99.90;;;;;;5084889;28;19960;-73
2023/09/21 11:16:32;;;;;;;;;;;25.30;99.90;;;;;;5085253;28;19971;-73
2023/09/21 11:18:59;;;;;;;;;;;25.50;99.90;;;;;;5085229;28;19956;-73
2023/09/21 11:21:28;;;;;;;;;;;25.60;99.90;;;;;;5085153;28;19956;-73
2023/09/21 11:23:55;;;;;;;;;;;25.70;99.90;;;;;;5084661;28;19983;-73
2023/09/21 11:26:22;;;;;;;;;;;25.80;99.90;;;;;;5084640;28;19921;-73
2023/09/21 11:28:57;;;;;;;;;;;25.80;99.90;;;;;;5085111;28;19927;-73
2023/09/21 11:31:23;;;;;;;;;;;25.80;99.90;;;;;;5082351;28;20109;-73
2023/09/21 11:33:50;;;;;;;;;;;25.80;99.90;;;;;;5084598;28;19920;-73
2023/09/21 11:36:18;;;;;;;;;;;25.90;99.90;;;;;;5088047;28;19924;-73
2023/09/21 11:38:46;;;;;;;;;;;26.10;99.90;;;;;;5089374;28;19927;-73
2023/09/21 11:41:14;;;;;;;;;;;26.20;99.90;;;;;;5084563;28;19983;-73
2023/09/21 11:43:43;;;;;;;;;;;26.40;99.90;;;;;;5084147;28;20381;-73
2023/09/21 11:46:11;;;;;;;;;;;26.50;99.90;;;;;;5089203;28;19927;-73
2023/09/21 11:48:38;;;;;;;;;;;26.50;99.90;;;;;;5084741;28;19952;-72
2023/09/21 11:51:06;;;;;;;;;;;26.60;99.90;;;;;;5084541;28;19921;-73
2023/09/21 11:53:33;;;;;;;;;;;26.60;99.90;;;;;;5084283;28;20210;-72
2023/09/21 11:56:01;;;;;;;;;;;26.70;99.90;;;;;;5089295;28;20148;-73
2023/09/21 11:58:31;;;;;;;;;;;26.90;99.90;;;;;;5084576;28;19966;-73
2023/09/21 12:01:15;;;;;;;;;;;27.00;99.90;;;;;;5083961;28;20207;-72
2023/09/21 12:03:41;;;;;;;;;;;27.20;99.90;;;;;;5084139;28;19955;-73
2023/09/21 12:06:08;;;;;;;;;;;27.30;99.90;;;;;;5083988;28;19920;-73
2023/09/21 12:08:35;;;;;;;;;;;27.30;99.90;;;;;;5083863;28;19991;-73
2023/09/21 12:11:04;;;;;;;;;;;27.40;99.90;;;;;;5091849;28;19991;-73
2023/09/21 12:13:31;;;;;;;;;;;27.40;99.90;;;;;;5093966;28;19948;-74
2023/09/21 12:15:58;;;;;;;;;;;27.50;99.90;;;;;;5087299;28;20175;-74
2023/09/21 12:18:26;;;;;;;;;;;27.60;99.90;;;;;;5083811;28;20155;-73
2023/09/21 12:20:56;;;;;;;;;;;27.70;99.90;;;;;;5083950;28;19920;-73
2023/09/21 12:23:23;;;;;;;;;;;27.90;99.90;;;;;;5083911;28;19920;-73
2023/09/21 12:25:50;;;;;;;;;;;28.20;99.90;;;;;;5088814;28;20304;-73
2023/09/21 12:28:19;;;;;;;;;;;28.30;99.90;;;;;;5093940;28;20132;-73
2023/09/21 12:30:47;;;;;;;;;;;28.40;99.90;;;;;;5083956;28;19933;-73
2023/09/21 12:33:15;;;;;;;;;;;28.60;99.90;;;;;;5087045;28;19935;-73
2023/09/21 12:35:42;;;;;;;;;;;28.80;99.90;;;;;;5082899;28;19959;-73
2023/09/21 12:38:10;;;;;;;;;;;29.10;99.90;;;;;;5083213;28;19956;-73
2023/09/21 12:40:37;;;;;;;;;;;29.20;99.90;;;;;;5083642;28;19921;-72
2023/09/21 12:43:05;;;;;;;;;;;29.10;99.90;;;;;;5083495;28;19956;-75
2023/09/21 12:45:33;;;;;;;;;;;28.80;99.90;;;;;;5083377;28;19921;-74
2023/09/21 12:48:02;;;;;;;;;;;28.50;99.90;;;;;;5083469;28;19983;-73
2023/09/21 12:50:29;;;;;;;;;;;28.40;99.90;;;;;;5083353;28;19956;-73
2023/09/21 12:52:56;;;;;;;;;;;28.40;99.90;;;;;;5083645;28;19920;-73
2023/09/21 12:55:23;;;;;;;;;;;28.50;99.90;;;;;;5083403;28;19983;-74
2023/09/21 12:57:50;;;;;;;;;;;28.70;99.90;;;;;;5083528;28;19926;-73
2023/09/21 13:00:22;;;;;;;;;;;28.90;99.90;;;;;;5086513;28;20201;-73
2023/09/21 13:02:50;;;;;;;;;;;29.00;99.90;;;;;;5079429;28;20134;-73
2023/09/21 13:05:17;;;;;;;;;;;29.20;99.90;;;;;;5083245;28;19928;-74
2023/09/21 13:07:45;;;;;;;;;;;29.20;99.90;;;;;;5078745;28;19921;-73
2023/09/21 13:10:13;;;;;;;;;;;29.30;99.90;;;;;;5083419;28;19924;-73
2023/09/21 13:12:40;;;;;;;;;;;29.30;99.90;;;;;;5083246;28;19920;-73
2023/09/21 13:15:07;;;;;;;;;;;29.30;99.90;;;;;;5082837;28;19920;-73
2023/09/21 13:17:34;;;;;;;;;;;29.50;99.90;;;;;;5082918;28;20207;-72
2023/09/21 13:20:03;;;;;;;;;;;29.80;99.90;;;;;;5083270;28;19920;-73
2023/09/21 13:22:30;;;;;;;;;;;30.00;99.90;;;;;;5086455;28;19920;-72
2023/09/21 13:24:57;;;;;;;;;;;30.00;99.90;;;;;;5083019;28;19991;-72
2023/09/21 13:27:24;;;;;;;;;;;29.90;99.90;;;;;;5083231;28;20033;-72
2023/09/21 13:29:51;;;;;;;;;;;29.70;99.90;;;;;;5082892;28;19921;-72
2023/09/21 13:32:19;;;;;;;;;;;29.60;99.90;;;;;;5083111;28;19921;-72
2023/09/21 13:34:46;;;;;;;;;;;29.40;99.90;;;;;;5078764;28;19920;-72
2023/09/21 13:37:14;;;;;;;;;;;29.40;99.90;;;;;;5083099;28;19924;-73
2023/09/21 13:39:41;;;;;;;;;;;29.40;99.90;;;;;;5083092;28;20210;-73
2023/09/21 13:42:09;;;;;;;;;;;29.40;99.90;;;;;;5082973;28;19983;-73
2023/09/21 13:44:36;;;;;;;;;;;29.50;99.90;;;;;;5084892;28;19921;-73
2023/09/21 13:47:04;;;;;;;;;;;29.40;99.90;;;;;;5085245;28;19987;-73
2023/09/21 13:49:33;;;;;;;;;;;29.20;99.90;;;;;;5086754;28;19920;-73
2023/09/21 13:52:00;;;;;;;;;;;29.00;99.90;;;;;;5086252;28;20211;-72
2023/09/21 13:54:29;;;;;;;;;;;28.80;99.90;;;;;;5088720;28;19948;-73
2023/09/21 13:56:56;;;;;;;;;;;28.60;99.90;;;;;;5093523;28;19951;-73
2023/09/21 13:59:22;;;;;;;;;;;28.50;99.90;;;;;;5090027;28;19928;-73
2023/09/21 14:01:49;;;;;;;;;;;28.30;99.90;;;;;;5086765;28;20095;-73
2023/09/21 14:04:16;;;;;;;;;;;28.10;99.90;;;;;;5086561;28;20016;-73
2023/09/21 14:06:43;;;;;;;;;;;28.00;99.90;;;;;;5081424;28;19943;-73
2023/09/21 14:09:10;;;;;;;;;;;27.90;99.90;;;;;;5091447;28;20166;-73
2023/09/21 14:11:39;;;;;;;;;;;27.80;99.90;;;;;;5086364;28;19928;-73
2023/09/21 14:14:05;;;;;;;;;;;27.70;99.90;;;;;;5086264;28;19966;-72
2023/09/21 14:16:32;;;;;;;;;;;27.60;99.90;;;;;;5086080;28;20213;-73
2023/09/21 14:18:59;;;;;;;;;;;27.60;99.90;;;;;;5086427;28;19987;-73